sensor_id;sensor_type;location;lat;lon;timestamp;P1;durP1;ratioP1;P2;durP2;ratioP2
68353;SDS011;55274;43.060;25.618;2024-02-15T00:00:53;9.70;;;4.68;;
68353;SDS011;55274;43.060;25.618;2024-02-15T00:03:19;8.48;;;4.40;;
68353;SDS011;55274;43.060;25.618;2024-02-15T00:05:45;21.05;;;6.13;;
68353;SDS011;55274;43.060;25.618;2024-02-15T00:08:11;6.75;;;3.90;;
68353;SDS011;55274;43.060;25.618;2024-02-15T00:10:37;13.93;;;4.85;;
68353;SDS011;55274;43.060;25.618;2024-02-15T00:13:03;8.30;;;4.32;;
68353;SDS011;55274;43.060;25.618;2024-02-15T00:15:31;7.82;;;4.25;;
68353;SDS011;55274;43.060;25.618;2024-02-15T00:17:59;14.02;;;4.88;;
68353;SDS011;55274;43.060;25.618;2024-02-15T00:20:25;11.82;;;4.55;;
68353;SDS011;55274;43.060;25.618;2024-02-15T00:22:51;16.73;;;4.63;;
68353;SDS011;55274;43.060;25.618;2024-02-15T00:25:17;14.35;;;4.55;;
68353;SDS011;55274;43.060;25.618;2024-02-15T00:27:44;9.55;;;4.40;;
68353;SDS011;55274;43.060;25.618;2024-02-15T00:30:10;11.63;;;3.95;;
68353;SDS011;55274;43.060;25.618;2024-02-15T00:32:36;7.25;;;3.80;;
68353;SDS011;55274;43.060;25.618;2024-02-15T00:35:03;9.90;;;4.00;;
68353;SDS011;55274;43.060;25.618;2024-02-15T00:37:35;8.82;;;4.05;;
68353;SDS011;55274;43.060;25.618;2024-02-15T00:40:01;6.60;;;3.58;;
68353;SDS011;55274;43.060;25.618;2024-02-15T00:42:29;10.52;;;3.63;;
68353;SDS011;55274;43.060;25.618;2024-02-15T00:44:57;5.97;;;3.33;;
68353;SDS011;55274;43.060;25.618;2024-02-15T00:47:23;7.30;;;4.07;;
68353;SDS011;55274;43.060;25.618;2024-02-15T00:49:49;7.05;;;3.78;;
68353;SDS011;55274;43.060;25.618;2024-02-15T00:52:15;6.97;;;3.70;;
68353;SDS011;55274;43.060;25.618;2024-02-15T00:54:45;8.52;;;4.20;;
68353;SDS011;55274;43.060;25.618;2024-02-15T00:57:11;8.80;;;4.22;;
68353;SDS011;55274;43.060;25.618;2024-02-15T00:59:37;10.35;;;4.43;;
68353;SDS011;55274;43.060;25.618;2024-02-15T01:02:03;10.20;;;5.10;;
68353;SDS011;55274;43.060;25.618;2024-02-15T01:04:30;9.45;;;4.63;;
68353;SDS011;55274;43.060;25.618;2024-02-15T01:06:56;9.32;;;4.20;;
68353;SDS011;55274;43.060;25.618;2024-02-15T01:09:22;8.68;;;4.20;;
68353;SDS011;55274;43.060;25.618;2024-02-15T01:11:48;10.60;;;4.10;;
68353;SDS011;55274;43.060;25.618;2024-02-15T01:14:14;7.35;;;4.45;;
68353;SDS011;55274;43.060;25.618;2024-02-15T01:16:41;9.38;;;4.38;;
68353;SDS011;55274;43.060;25.618;2024-02-15T01:19:07;8.55;;;4.18;;
68353;SDS011;55274;43.060;25.618;2024-02-15T01:21:33;11.13;;;4.28;;
68353;SDS011;55274;43.060;25.618;2024-02-15T01:23:59;10.95;;;4.20;;
68353;SDS011;55274;43.060;25.618;2024-02-15T01:26:26;8.48;;;4.18;;
68353;SDS011;55274;43.060;25.618;2024-02-15T01:28:52;7.57;;;4.30;;
68353;SDS011;55274;43.060;25.618;2024-02-15T01:31:18;8.70;;;4.03;;
68353;SDS011;55274;43.060;25.618;2024-02-15T01:33:44;7.75;;;3.80;;
68353;SDS011;55274;43.060;25.618;2024-02-15T01:36:13;8.13;;;3.70;;
68353;SDS011;55274;43.060;25.618;2024-02-15T01:38:41;7.60;;;3.75;;
68353;SDS011;55274;43.060;25.618;2024-02-15T01:41:07;10.98;;;4.13;;
68353;SDS011;55274;43.060;25.618;2024-02-15T01:43:34;8.25;;;4.13;;
68353;SDS011;55274;43.060;25.618;2024-02-15T01:46:00;10.82;;;4.43;;
68353;SDS011;55274;43.060;25.618;2024-02-15T01:48:32;7.80;;;3.75;;
68353;SDS011;55274;43.060;25.618;2024-02-15T01:50:58;9.07;;;3.95;;
68353;SDS011;55274;43.060;25.618;2024-02-15T01:53:24;8.75;;;3.85;;
68353;SDS011;55274;43.060;25.618;2024-02-15T01:55:52;7.20;;;3.60;;
68353;SDS011;55274;43.060;25.618;2024-02-15T01:58:22;8.60;;;3.80;;
68353;SDS011;55274;43.060;25.618;2024-02-15T02:00:52;8.25;;;4.15;;
68353;SDS011;55274;43.060;25.618;2024-02-15T02:03:19;6.45;;;3.80;;
68353;SDS011;55274;43.060;25.618;2024-02-15T02:05:46;8.75;;;3.85;;
68353;SDS011;55274;43.060;25.618;2024-02-15T02:08:12;10.10;;;4.45;;
68353;SDS011;55274;43.060;25.618;2024-02-15T02:10:38;7.40;;;3.55;;
68353;SDS011;55274;43.060;25.618;2024-02-15T02:13:05;8.25;;;3.85;;
68353;SDS011;55274;43.060;25.618;2024-02-15T02:15:31;12.27;;;4.47;;
68353;SDS011;55274;43.060;25.618;2024-02-15T02:17:57;8.45;;;4.00;;
68353;SDS011;55274;43.060;25.618;2024-02-15T02:20:26;10.05;;;4.20;;
68353;SDS011;55274;43.060;25.618;2024-02-15T02:22:53;10.15;;;4.50;;
68353;SDS011;55274;43.060;25.618;2024-02-15T02:25:25;8.70;;;4.25;;
68353;SDS011;55274;43.060;25.618;2024-02-15T02:27:53;7.30;;;3.60;;
68353;SDS011;55274;43.060;25.618;2024-02-15T02:30:21;8.50;;;4.13;;
68353;SDS011;55274;43.060;25.618;2024-02-15T02:32:47;6.80;;;3.33;;
68353;SDS011;55274;43.060;25.618;2024-02-15T02:35:14;9.05;;;4.35;;
68353;SDS011;55274;43.060;25.618;2024-02-15T02:37:41;9.82;;;4.60;;
68353;SDS011;55274;43.060;25.618;2024-02-15T02:40:08;11.38;;;4.80;;
68353;SDS011;55274;43.060;25.618;2024-02-15T02:42:35;12.38;;;4.15;;
68353;SDS011;55274;43.060;25.618;2024-02-15T02:45:15;6.97;;;3.80;;
68353;SDS011;55274;43.060;25.618;2024-02-15T02:47:41;7.55;;;4.15;;
68353;SDS011;55274;43.060;25.618;2024-02-15T02:50:06;9.55;;;3.88;;
68353;SDS011;55274;43.060;25.618;2024-02-15T02:52:33;8.00;;;3.95;;
68353;SDS011;55274;43.060;25.618;2024-02-15T02:54:59;8.18;;;4.38;;
68353;SDS011;55274;43.060;25.618;2024-02-15T02:57:25;9.02;;;3.97;;
68353;SDS011;55274;43.060;25.618;2024-02-15T02:59:51;8.48;;;4.15;;
68353;SDS011;55274;43.060;25.618;2024-02-15T03:02:17;7.85;;;4.00;;
68353;SDS011;55274;43.060;25.618;2024-02-15T03:04:43;9.32;;;4.43;;
68353;SDS011;55274;43.060;25.618;2024-02-15T03:07:09;9.30;;;4.72;;
68353;SDS011;55274;43.060;25.618;2024-02-15T03:09:34;9.75;;;4.65;;
68353;SDS011;55274;43.060;25.618;2024-02-15T03:12:02;9.13;;;4.70;;
68353;SDS011;55274;43.060;25.618;2024-02-15T03:14:28;10.00;;;4.10;;
68353;SDS011;55274;43.060;25.618;2024-02-15T03:16:56;12.13;;;4.63;;
68353;SDS011;55274;43.060;25.618;2024-02-15T03:19:22;9.75;;;4.25;;
68353;SDS011;55274;43.060;25.618;2024-02-15T03:21:48;14.38;;;4.63;;
68353;SDS011;55274;43.060;25.618;2024-02-15T03:24:14;8.48;;;4.20;;
68353;SDS011;55274;43.060;25.618;2024-02-15T03:26:39;11.57;;;4.78;;
68353;SDS011;55274;43.060;25.618;2024-02-15T03:29:07;11.30;;;4.70;;
68353;SDS011;55274;43.060;25.618;2024-02-15T03:31:33;16.15;;;4.72;;
68353;SDS011;55274;43.060;25.618;2024-02-15T03:34:02;11.48;;;4.95;;
68353;SDS011;55274;43.060;25.618;2024-02-15T03:36:29;8.75;;;3.90;;
68353;SDS011;55274;43.060;25.618;2024-02-15T03:38:55;9.30;;;4.32;;
68353;SDS011;55274;43.060;25.618;2024-02-15T03:41:21;9.05;;;4.63;;
68353;SDS011;55274;43.060;25.618;2024-02-15T03:43:48;9.75;;;4.63;;
68353;SDS011;55274;43.060;25.618;2024-02-15T03:46:14;9.05;;;4.65;;
68353;SDS011;55274;43.060;25.618;2024-02-15T03:48:43;10.60;;;4.53;;
68353;SDS011;55274;43.060;25.618;2024-02-15T03:51:09;9.55;;;4.90;;
68353;SDS011;55274;43.060;25.618;2024-02-15T03:53:35;9.55;;;4.72;;
68353;SDS011;55274;43.060;25.618;2024-02-15T03:56:05;10.88;;;4.88;;
68353;SDS011;55274;43.060;25.618;2024-02-15T03:58:31;9.15;;;4.53;;
68353;SDS011;55274;43.060;25.618;2024-02-15T04:00:58;12.88;;;5.20;;
68353;SDS011;55274;43.060;25.618;2024-02-15T04:03:24;11.05;;;4.55;;
68353;SDS011;55274;43.060;25.618;2024-02-15T04:05:50;8.52;;;4.50;;
68353;SDS011;55274;43.060;25.618;2024-02-15T04:08:15;12.18;;;5.28;;
68353;SDS011;55274;43.060;25.618;2024-02-15T04:10:42;10.90;;;4.63;;
68353;SDS011;55274;43.060;25.618;2024-02-15T04:13:08;10.35;;;4.80;;
68353;SDS011;55274;43.060;25.618;2024-02-15T04:15:34;11.80;;;5.43;;
68353;SDS011;55274;43.060;25.618;2024-02-15T04:18:00;10.02;;;4.45;;
68353;SDS011;55274;43.060;25.618;2024-02-15T04:20:25;8.48;;;3.95;;
68353;SDS011;55274;43.060;25.618;2024-02-15T04:22:51;8.55;;;4.38;;
68353;SDS011;55274;43.060;25.618;2024-02-15T04:25:19;10.68;;;4.72;;
68353;SDS011;55274;43.060;25.618;2024-02-15T04:27:48;10.48;;;4.82;;
68353;SDS011;55274;43.060;25.618;2024-02-15T04:30:14;9.88;;;4.95;;
68353;SDS011;55274;43.060;25.618;2024-02-15T04:32:44;11.73;;;4.68;;
68353;SDS011;55274;43.060;25.618;2024-02-15T04:35:10;11.50;;;5.13;;
68353;SDS011;55274;43.060;25.618;2024-02-15T04:37:36;9.15;;;4.78;;
68353;SDS011;55274;43.060;25.618;2024-02-15T04:40:03;12.38;;;5.03;;
68353;SDS011;55274;43.060;25.618;2024-02-15T04:42:35;10.52;;;5.03;;
68353;SDS011;55274;43.060;25.618;2024-02-15T04:45:09;9.07;;;5.28;;
68353;SDS011;55274;43.060;25.618;2024-02-15T04:47:38;11.20;;;5.00;;
68353;SDS011;55274;43.060;25.618;2024-02-15T04:50:06;9.85;;;4.93;;
68353;SDS011;55274;43.060;25.618;2024-02-15T04:52:32;8.07;;;4.53;;
68353;SDS011;55274;43.060;25.618;2024-02-15T04:54:58;11.95;;;5.05;;
68353;SDS011;55274;43.060;25.618;2024-02-15T04:57:27;11.35;;;5.25;;
68353;SDS011;55274;43.060;25.618;2024-02-15T05:02:21;11.32;;;4.85;;
68353;SDS011;55274;43.060;25.618;2024-02-15T05:04:50;12.38;;;4.88;;
68353;SDS011;55274;43.060;25.618;2024-02-15T05:07:21;10.32;;;5.18;;
68353;SDS011;55274;43.060;25.618;2024-02-15T05:09:48;10.43;;;4.50;;
68353;SDS011;55274;43.060;25.618;2024-02-15T05:12:21;8.85;;;4.47;;
68353;SDS011;55274;43.060;25.618;2024-02-15T05:14:49;9.85;;;4.80;;
68353;SDS011;55274;43.060;25.618;2024-02-15T05:17:16;11.27;;;5.25;;
68353;SDS011;55274;43.060;25.618;2024-02-15T05:19:42;11.63;;;5.43;;
68353;SDS011;55274;43.060;25.618;2024-02-15T05:22:07;10.45;;;4.95;;
68353;SDS011;55274;43.060;25.618;2024-02-15T05:24:33;11.30;;;5.20;;
68353;SDS011;55274;43.060;25.618;2024-02-15T05:26:59;10.88;;;6.22;;
68353;SDS011;55274;43.060;25.618;2024-02-15T05:29:26;10.82;;;4.93;;
68353;SDS011;55274;43.060;25.618;2024-02-15T05:31:53;12.98;;;5.70;;
68353;SDS011;55274;43.060;25.618;2024-02-15T05:34:19;15.68;;;5.97;;
68353;SDS011;55274;43.060;25.618;2024-02-15T05:36:45;12.15;;;5.20;;
68353;SDS011;55274;43.060;25.618;2024-02-15T05:39:13;14.57;;;5.30;;
68353;SDS011;55274;43.060;25.618;2024-02-15T05:41:39;11.63;;;5.32;;
68353;SDS011;55274;43.060;25.618;2024-02-15T05:44:05;10.60;;;5.18;;
68353;SDS011;55274;43.060;25.618;2024-02-15T05:46:34;16.20;;;5.85;;
68353;SDS011;55274;43.060;25.618;2024-02-15T05:49:02;11.73;;;5.53;;
68353;SDS011;55274;43.060;25.618;2024-02-15T05:51:29;11.82;;;5.22;;
68353;SDS011;55274;43.060;25.618;2024-02-15T05:53:56;10.52;;;5.40;;
68353;SDS011;55274;43.060;25.618;2024-02-15T05:56:24;12.52;;;5.47;;
68353;SDS011;55274;43.060;25.618;2024-02-15T05:58:51;12.25;;;5.63;;
68353;SDS011;55274;43.060;25.618;2024-02-15T06:01:17;12.15;;;5.30;;
68353;SDS011;55274;43.060;25.618;2024-02-15T06:03:43;11.32;;;5.30;;
68353;SDS011;55274;43.060;25.618;2024-02-15T06:06:10;13.00;;;5.75;;
68353;SDS011;55274;43.060;25.618;2024-02-15T06:08:37;15.82;;;6.60;;
68353;SDS011;55274;43.060;25.618;2024-02-15T06:11:03;12.85;;;6.53;;
68353;SDS011;55274;43.060;25.618;2024-02-15T06:13:34;13.20;;;6.03;;
68353;SDS011;55274;43.060;25.618;2024-02-15T06:16:00;13.85;;;6.53;;
68353;SDS011;55274;43.060;25.618;2024-02-15T06:18:29;18.05;;;6.38;;
68353;SDS011;55274;43.060;25.618;2024-02-15T06:20:58;15.07;;;6.95;;
68353;SDS011;55274;43.060;25.618;2024-02-15T06:23:25;13.85;;;6.20;;
68353;SDS011;55274;43.060;25.618;2024-02-15T06:25:53;33.75;;;14.43;;
68353;SDS011;55274;43.060;25.618;2024-02-15T06:28:20;36.72;;;13.23;;
68353;SDS011;55274;43.060;25.618;2024-02-15T06:31:08;31.35;;;13.10;;
68353;SDS011;55274;43.060;25.618;2024-02-15T06:33:53;15.23;;;7.03;;
68353;SDS011;55274;43.060;25.618;2024-02-15T06:36:47;19.48;;;7.60;;
68353;SDS011;55274;43.060;25.618;2024-02-15T06:39:33;19.70;;;8.27;;
68353;SDS011;55274;43.060;25.618;2024-02-15T06:42:03;20.92;;;9.55;;
68353;SDS011;55274;43.060;25.618;2024-02-15T06:44:29;19.65;;;7.80;;
68353;SDS011;55274;43.060;25.618;2024-02-15T06:46:55;16.17;;;7.35;;
68353;SDS011;55274;43.060;25.618;2024-02-15T06:49:22;19.80;;;8.63;;
68353;SDS011;55274;43.060;25.618;2024-02-15T06:51:50;17.77;;;8.20;;
68353;SDS011;55274;43.060;25.618;2024-02-15T06:54:16;17.05;;;7.90;;
68353;SDS011;55274;43.060;25.618;2024-02-15T06:56:45;18.60;;;8.32;;
68353;SDS011;55274;43.060;25.618;2024-02-15T06:59:12;17.65;;;7.63;;
68353;SDS011;55274;43.060;25.618;2024-02-15T07:01:43;20.85;;;8.13;;
68353;SDS011;55274;43.060;25.618;2024-02-15T07:04:09;18.65;;;8.70;;
68353;SDS011;55274;43.060;25.618;2024-02-15T07:06:36;19.80;;;9.10;;
68353;SDS011;55274;43.060;25.618;2024-02-15T07:09:03;22.60;;;10.35;;
68353;SDS011;55274;43.060;25.618;2024-02-15T07:11:29;21.50;;;10.40;;
68353;SDS011;55274;43.060;25.618;2024-02-15T07:13:57;17.83;;;9.00;;
68353;SDS011;55274;43.060;25.618;2024-02-15T07:16:23;19.55;;;8.95;;
68353;SDS011;55274;43.060;25.618;2024-02-15T07:18:49;18.02;;;8.18;;
68353;SDS011;55274;43.060;25.618;2024-02-15T07:21:15;18.83;;;8.25;;
68353;SDS011;55274;43.060;25.618;2024-02-15T07:23:42;19.17;;;7.97;;
68353;SDS011;55274;43.060;25.618;2024-02-15T07:26:07;16.00;;;7.53;;
68353;SDS011;55274;43.060;25.618;2024-02-15T07:28:33;18.80;;;7.78;;
68353;SDS011;55274;43.060;25.618;2024-02-15T07:30:59;20.63;;;7.90;;
68353;SDS011;55274;43.060;25.618;2024-02-15T07:33:28;18.35;;;8.85;;
68353;SDS011;55274;43.060;25.618;2024-02-15T07:35:54;15.55;;;7.88;;
68353;SDS011;55274;43.060;25.618;2024-02-15T07:38:21;19.70;;;7.80;;
68353;SDS011;55274;43.060;25.618;2024-02-15T07:40:48;15.23;;;7.50;;
68353;SDS011;55274;43.060;25.618;2024-02-15T07:43:14;14.13;;;7.03;;
68353;SDS011;55274;43.060;25.618;2024-02-15T07:45:41;19.15;;;7.10;;
68353;SDS011;55274;43.060;25.618;2024-02-15T07:48:07;13.48;;;6.22;;
68353;SDS011;55274;43.060;25.618;2024-02-15T07:50:33;10.95;;;5.28;;
68353;SDS011;55274;43.060;25.618;2024-02-15T07:52:59;15.98;;;6.53;;
68353;SDS011;55274;43.060;25.618;2024-02-15T07:55:24;12.20;;;5.22;;
68353;SDS011;55274;43.060;25.618;2024-02-15T07:57:50;14.68;;;6.50;;
68353;SDS011;55274;43.060;25.618;2024-02-15T08:00:18;12.25;;;5.22;;
68353;SDS011;55274;43.060;25.618;2024-02-15T08:02:44;15.35;;;7.13;;
68353;SDS011;55274;43.060;25.618;2024-02-15T08:05:11;17.83;;;6.35;;
68353;SDS011;55274;43.060;25.618;2024-02-15T08:07:44;9.88;;;4.95;;
68353;SDS011;55274;43.060;25.618;2024-02-15T08:10:11;11.80;;;5.97;;
68353;SDS011;55274;43.060;25.618;2024-02-15T08:12:41;19.13;;;6.43;;
68353;SDS011;55274;43.060;25.618;2024-02-15T08:15:08;11.55;;;4.25;;
68353;SDS011;55274;43.060;25.618;2024-02-15T08:17:43;12.18;;;4.68;;
68353;SDS011;55274;43.060;25.618;2024-02-15T08:20:12;8.93;;;4.55;;
68353;SDS011;55274;43.060;25.618;2024-02-15T08:22:39;9.38;;;4.18;;
68353;SDS011;55274;43.060;25.618;2024-02-15T08:25:10;8.07;;;4.32;;
68353;SDS011;55274;43.060;25.618;2024-02-15T08:27:39;8.93;;;4.30;;
68353;SDS011;55274;43.060;25.618;2024-02-15T08:30:09;14.43;;;5.13;;
68353;SDS011;55274;43.060;25.618;2024-02-15T08:32:36;18.35;;;6.32;;
68353;SDS011;55274;43.060;25.618;2024-02-15T08:35:04;11.07;;;3.85;;
68353;SDS011;55274;43.060;25.618;2024-02-15T08:37:31;11.38;;;3.67;;
68353;SDS011;55274;43.060;25.618;2024-02-15T08:39:59;8.15;;;4.85;;
68353;SDS011;55274;43.060;25.618;2024-02-15T08:42:25;9.82;;;4.43;;
68353;SDS011;55274;43.060;25.618;2024-02-15T08:44:52;18.35;;;5.45;;
68353;SDS011;55274;43.060;25.618;2024-02-15T08:47:17;11.07;;;4.65;;
68353;SDS011;55274;43.060;25.618;2024-02-15T08:49:43;11.90;;;4.10;;
68353;SDS011;55274;43.060;25.618;2024-02-15T08:52:09;10.68;;;4.03;;
68353;SDS011;55274;43.060;25.618;2024-02-15T08:54:35;8.90;;;4.28;;
68353;SDS011;55274;43.060;25.618;2024-02-15T08:57:04;17.15;;;6.40;;
68353;SDS011;55274;43.060;25.618;2024-02-15T08:59:31;10.15;;;3.90;;
68353;SDS011;55274;43.060;25.618;2024-02-15T09:01:57;13.68;;;5.35;;
68353;SDS011;55274;43.060;25.618;2024-02-15T09:04:25;14.63;;;5.20;;
68353;SDS011;55274;43.060;25.618;2024-02-15T09:06:51;11.60;;;4.65;;
68353;SDS011;55274;43.060;25.618;2024-02-15T09:09:17;9.88;;;4.50;;
68353;SDS011;55274;43.060;25.618;2024-02-15T09:11:43;9.57;;;4.53;;
68353;SDS011;55274;43.060;25.618;2024-02-15T09:14:09;11.38;;;5.28;;
68353;SDS011;55274;43.060;25.618;2024-02-15T09:16:38;8.68;;;4.47;;
68353;SDS011;55274;43.060;25.618;2024-02-15T09:19:04;17.73;;;6.35;;
68353;SDS011;55274;43.060;25.618;2024-02-15T09:21:31;8.48;;;4.00;;
68353;SDS011;55274;43.060;25.618;2024-02-15T09:23:59;13.13;;;5.43;;
68353;SDS011;55274;43.060;25.618;2024-02-15T09:26:25;11.18;;;4.35;;
68353;SDS011;55274;43.060;25.618;2024-02-15T09:28:50;10.23;;;3.90;;
68353;SDS011;55274;43.060;25.618;2024-02-15T09:31:18;10.10;;;5.20;;
68353;SDS011;55274;43.060;25.618;2024-02-15T09:33:44;12.98;;;4.65;;
68353;SDS011;55274;43.060;25.618;2024-02-15T09:36:10;26.15;;;4.93;;
68353;SDS011;55274;43.060;25.618;2024-02-15T09:38:55;12.02;;;5.80;;
68353;SDS011;55274;43.060;25.618;2024-02-15T09:41:20;9.40;;;4.00;;
68353;SDS011;55274;43.060;25.618;2024-02-15T09:43:46;10.38;;;5.22;;
68353;SDS011;55274;43.060;25.618;2024-02-15T09:46:13;9.75;;;4.35;;
68353;SDS011;55274;43.060;25.618;2024-02-15T09:48:39;7.10;;;3.97;;
68353;SDS011;55274;43.060;25.618;2024-02-15T09:51:06;9.35;;;4.10;;
68353;SDS011;55274;43.060;25.618;2024-02-15T09:53:34;11.93;;;4.10;;
68353;SDS011;55274;43.060;25.618;2024-02-15T09:56:00;6.05;;;3.83;;
68353;SDS011;55274;43.060;25.618;2024-02-15T09:58:29;10.77;;;4.75;;
68353;SDS011;55274;43.060;25.618;2024-02-15T10:01:00;14.68;;;5.82;;
68353;SDS011;55274;43.060;25.618;2024-02-15T10:03:31;10.15;;;4.50;;
68353;SDS011;55274;43.060;25.618;2024-02-15T10:05:57;17.90;;;5.32;;
68353;SDS011;55274;43.060;25.618;2024-02-15T10:08:23;15.35;;;4.10;;
68353;SDS011;55274;43.060;25.618;2024-02-15T10:11:06;17.95;;;4.57;;
68353;SDS011;55274;43.060;25.618;2024-02-15T10:13:33;10.65;;;4.30;;
68353;SDS011;55274;43.060;25.618;2024-02-15T10:16:04;15.32;;;4.20;;
68353;SDS011;55274;43.060;25.618;2024-02-15T10:18:44;11.98;;;4.25;;
68353;SDS011;55274;43.060;25.618;2024-02-15T10:21:10;8.00;;;4.07;;
68353;SDS011;55274;43.060;25.618;2024-02-15T10:24:01;8.45;;;4.15;;
68353;SDS011;55274;43.060;25.618;2024-02-15T10:26:30;8.15;;;4.75;;
68353;SDS011;55274;43.060;25.618;2024-02-15T10:29:10;31.92;;;5.60;;
68353;SDS011;55274;43.060;25.618;2024-02-15T10:31:37;14.05;;;4.60;;
68353;SDS011;55274;43.060;25.618;2024-02-15T10:34:07;8.20;;;4.05;;
68353;SDS011;55274;43.060;25.618;2024-02-15T10:36:33;14.60;;;4.47;;
68353;SDS011;55274;43.060;25.618;2024-02-15T10:39:18;12.32;;;4.47;;
68353;SDS011;55274;43.060;25.618;2024-02-15T10:41:51;10.48;;;4.45;;
68353;SDS011;55274;43.060;25.618;2024-02-15T10:44:19;18.13;;;5.40;;
68353;SDS011;55274;43.060;25.618;2024-02-15T10:46:46;14.85;;;4.45;;
68353;SDS011;55274;43.060;25.618;2024-02-15T10:49:17;18.25;;;5.72;;
68353;SDS011;55274;43.060;25.618;2024-02-15T10:51:49;11.00;;;4.53;;
68353;SDS011;55274;43.060;25.618;2024-02-15T10:57:18;70.20;;;8.82;;
68353;SDS011;55274;43.060;25.618;2024-02-15T10:59:56;16.42;;;4.68;;
68353;SDS011;55274;43.060;25.618;2024-02-15T11:02:27;11.95;;;4.07;;
68353;SDS011;55274;43.060;25.618;2024-02-15T11:05:06;13.57;;;4.93;;
68353;SDS011;55274;43.060;25.618;2024-02-15T11:07:37;15.35;;;4.93;;
68353;SDS011;55274;43.060;25.618;2024-02-15T11:10:04;10.63;;;4.60;;
68353;SDS011;55274;43.060;25.618;2024-02-15T11:12:35;11.18;;;4.43;;
68353;SDS011;55274;43.060;25.618;2024-02-15T11:15:09;10.18;;;3.88;;
68353;SDS011;55274;43.060;25.618;2024-02-15T11:25:54;9.52;;;4.75;;
68353;SDS011;55274;43.060;25.618;2024-02-15T11:30:53;13.65;;;4.57;;
68353;SDS011;55274;43.060;25.618;2024-02-15T11:33:27;12.63;;;4.50;;
68353;SDS011;55274;43.060;25.618;2024-02-15T11:38:31;10.32;;;5.45;;
68353;SDS011;55274;43.060;25.618;2024-02-15T11:46:26;24.60;;;6.20;;
68353;SDS011;55274;43.060;25.618;2024-02-15T11:48:56;25.08;;;10.40;;
68353;SDS011;55274;43.060;25.618;2024-02-15T11:54:11;22.42;;;5.40;;
68353;SDS011;55274;43.060;25.618;2024-02-15T11:59:09;15.20;;;5.80;;
68353;SDS011;55274;43.060;25.618;2024-02-15T12:01:43;17.48;;;6.30;;
68353;SDS011;55274;43.060;25.618;2024-02-15T12:04:29;21.73;;;6.15;;
68353;SDS011;55274;43.060;25.618;2024-02-15T12:07:14;13.60;;;4.97;;
68353;SDS011;55274;43.060;25.618;2024-02-15T12:09:59;11.32;;;4.13;;
68353;SDS011;55274;43.060;25.618;2024-02-15T12:12:53;14.27;;;6.10;;
68353;SDS011;55274;43.060;25.618;2024-02-15T12:15:37;20.75;;;6.38;;
68353;SDS011;55274;43.060;25.618;2024-02-15T12:18:22;18.20;;;5.35;;
68353;SDS011;55274;43.060;25.618;2024-02-15T12:21:06;10.52;;;5.03;;
68353;SDS011;55274;43.060;25.618;2024-02-15T12:23:35;10.45;;;4.10;;
68353;SDS011;55274;43.060;25.618;2024-02-15T12:26:03;13.50;;;4.97;;
68353;SDS011;55274;43.060;25.618;2024-02-15T12:28:29;19.65;;;4.50;;
68353;SDS011;55274;43.060;25.618;2024-02-15T12:30:56;16.63;;;5.40;;
68353;SDS011;55274;43.060;25.618;2024-02-15T12:33:25;16.10;;;5.07;;
68353;SDS011;55274;43.060;25.618;2024-02-15T12:36:03;10.98;;;4.07;;
68353;SDS011;55274;43.060;25.618;2024-02-15T12:38:32;25.42;;;5.88;;
68353;SDS011;55274;43.060;25.618;2024-02-15T12:41:02;20.80;;;5.15;;
68353;SDS011;55274;43.060;25.618;2024-02-15T12:43:28;10.27;;;3.90;;
68353;SDS011;55274;43.060;25.618;2024-02-15T12:45:55;8.30;;;4.05;;
68353;SDS011;55274;43.060;25.618;2024-02-15T12:48:22;11.45;;;4.00;;
68353;SDS011;55274;43.060;25.618;2024-02-15T12:50:48;11.07;;;4.53;;
68353;SDS011;55274;43.060;25.618;2024-02-15T12:53:20;8.70;;;4.20;;
68353;SDS011;55274;43.060;25.618;2024-02-15T12:55:52;24.88;;;5.95;;
68353;SDS011;55274;43.060;25.618;2024-02-15T12:58:22;14.32;;;5.00;;
68353;SDS011;55274;43.060;25.618;2024-02-15T13:00:54;13.88;;;5.28;;
68353;SDS011;55274;43.060;25.618;2024-02-15T13:03:23;12.90;;;4.57;;
68353;SDS011;55274;43.060;25.618;2024-02-15T13:05:49;14.90;;;4.93;;
68353;SDS011;55274;43.060;25.618;2024-02-15T13:08:15;16.95;;;4.53;;
68353;SDS011;55274;43.060;25.618;2024-02-15T13:10:43;11.77;;;5.22;;
68353;SDS011;55274;43.060;25.618;2024-02-15T13:13:09;12.05;;;5.43;;
68353;SDS011;55274;43.060;25.618;2024-02-15T13:15:34;9.23;;;4.45;;
68353;SDS011;55274;43.060;25.618;2024-02-15T13:18:02;11.25;;;5.28;;
68353;SDS011;55274;43.060;25.618;2024-02-15T13:20:30;11.57;;;4.93;;
68353;SDS011;55274;43.060;25.618;2024-02-15T13:23:06;12.18;;;4.78;;
68353;SDS011;55274;43.060;25.618;2024-02-15T13:25:34;34.17;;;6.18;;
68353;SDS011;55274;43.060;25.618;2024-02-15T13:28:01;18.05;;;5.30;;
68353;SDS011;55274;43.060;25.618;2024-02-15T13:30:29;14.45;;;4.88;;
68353;SDS011;55274;43.060;25.618;2024-02-15T13:32:55;10.00;;;4.78;;
68353;SDS011;55274;43.060;25.618;2024-02-15T13:35:21;17.10;;;4.68;;
68353;SDS011;55274;43.060;25.618;2024-02-15T13:37:55;18.38;;;4.90;;
68353;SDS011;55274;43.060;25.618;2024-02-15T13:40:23;13.60;;;4.65;;
68353;SDS011;55274;43.060;25.618;2024-02-15T13:42:57;13.88;;;5.20;;
68353;SDS011;55274;43.060;25.618;2024-02-15T13:45:24;12.23;;;4.60;;
68353;SDS011;55274;43.060;25.618;2024-02-15T13:48:00;39.20;;;6.53;;
68353;SDS011;55274;43.060;25.618;2024-02-15T13:50:28;10.52;;;3.70;;
68353;SDS011;55274;43.060;25.618;2024-02-15T13:52:55;21.80;;;5.90;;
68353;SDS011;55274;43.060;25.618;2024-02-15T13:55:21;11.93;;;4.50;;
68353;SDS011;55274;43.060;25.618;2024-02-15T13:57:47;12.93;;;3.92;;
68353;SDS011;55274;43.060;25.618;2024-02-15T14:00:14;12.10;;;4.30;;
68353;SDS011;55274;43.060;25.618;2024-02-15T14:02:54;10.23;;;3.90;;
68353;SDS011;55274;43.060;25.618;2024-02-15T14:05:23;11.85;;;4.72;;
68353;SDS011;55274;43.060;25.618;2024-02-15T14:07:51;9.07;;;3.97;;
68353;SDS011;55274;43.060;25.618;2024-02-15T14:10:22;29.05;;;5.13;;
68353;SDS011;55274;43.060;25.618;2024-02-15T14:12:49;13.95;;;4.80;;
68353;SDS011;55274;43.060;25.618;2024-02-15T14:15:26;16.13;;;4.65;;
68353;SDS011;55274;43.060;25.618;2024-02-15T14:17:53;18.15;;;6.35;;
68353;SDS011;55274;43.060;25.618;2024-02-15T14:20:20;29.70;;;6.40;;
68353;SDS011;55274;43.060;25.618;2024-02-15T14:22:47;14.55;;;5.28;;
68353;SDS011;55274;43.060;25.618;2024-02-15T14:25:17;18.38;;;6.03;;
68353;SDS011;55274;43.060;25.618;2024-02-15T14:27:44;18.67;;;5.72;;
68353;SDS011;55274;43.060;25.618;2024-02-15T14:30:10;18.85;;;6.25;;
68353;SDS011;55274;43.060;25.618;2024-02-15T14:32:54;20.77;;;6.45;;
68353;SDS011;55274;43.060;25.618;2024-02-15T14:35:28;22.80;;;6.28;;
68353;SDS011;55274;43.060;25.618;2024-02-15T14:37:55;22.15;;;5.90;;
68353;SDS011;55274;43.060;25.618;2024-02-15T14:40:24;27.67;;;7.10;;
68353;SDS011;55274;43.060;25.618;2024-02-15T14:42:50;17.85;;;6.18;;
68353;SDS011;55274;43.060;25.618;2024-02-15T14:45:16;17.13;;;6.07;;
68353;SDS011;55274;43.060;25.618;2024-02-15T14:47:41;14.88;;;5.55;;
68353;SDS011;55274;43.060;25.618;2024-02-15T14:50:07;18.25;;;5.72;;
68353;SDS011;55274;43.060;25.618;2024-02-15T14:52:37;15.63;;;6.63;;
68353;SDS011;55274;43.060;25.618;2024-02-15T14:55:03;65.18;;;8.52;;
68353;SDS011;55274;43.060;25.618;2024-02-15T14:57:30;23.80;;;6.05;;
68353;SDS011;55274;43.060;25.618;2024-02-15T14:59:57;21.95;;;6.40;;
68353;SDS011;55274;43.060;25.618;2024-02-15T15:02:24;11.57;;;5.32;;